Time,TemperatureF,DewpointF,PressureIn,WindDirection,WindDirectionDegrees,WindSpeedMPH,WindSpeedGustMPH,Humidity,HourlyPrecipIn,Conditions,Clouds,dailyrainin,SoftwareType,DateUTC
2013-09-26 00:00:00,55.2,54.0,29.91,North,360,0.0,0.0,94,0.00,,,0.24,weatherlink.com 1.10,2013-09-26 04:00:00,
2013-09-26 00:15:00,54.9,53.0,29.91,North,360,0.0,0.0,94,0.00,,,0.24,weatherlink.com 1.10,2013-09-26 04:15:00,
2013-09-26 00:30:00,54.9,53.0,29.91,North,360,0.0,0.0,94,0.00,,,0.24,weatherlink.com 1.10,2013-09-26 04:30:00,
2013-09-26 00:45:00,54.8,53.0,29.91,North,360,0.0,0.0,94,0.00,,,0.24,weatherlink.com 1.10,2013-09-26 04:45:00,
2013-09-26 01:00:00,54.5,53.0,29.91,North,360,0.0,0.0,94,0.00,,,0.24,weatherlink.com 1.10,2013-09-26 05:00:00,
2013-09-26 01:15:00,54.3,53.0,29.91,North,355,1.0,1.0,94,0.00,,,0.24,weatherlink.com 1.10,2013-09-26 05:15:00,
2013-09-26 01:30:00,54.0,52.0,29.91,NW,304,2.0,3.0,94,0.00,,,0.24,weatherlink.com 1.10,2013-09-26 05:30:00,
2013-09-26 01:45:00,53.9,52.0,29.91,NW,304,0.0,1.0,94,0.00,,,0.24,weatherlink.com 1.10,2013-09-26 05:45:00,
2013-09-26 02:00:00,53.8,52.0,29.91,NW,304,0.0,0.0,94,0.00,,,0.24,weatherlink.com 1.10,2013-09-26 06:00:00,
2013-09-26 02:15:00,53.6,52.0,29.91,NW,304,0.0,0.0,94,0.00,,,0.24,weatherlink.com 1.10,2013-09-26 06:15:00,
2013-09-26 02:30:00,53.3,52.0,29.91,NW,304,0.0,0.0,94,0.00,,,0.24,weatherlink.com 1.10,2013-09-26 06:30:00,
2013-09-26 02:45:00,53.2,52.0,29.91,NW,304,0.0,0.0,94,0.00,,,0.24,weatherlink.com 1.10,2013-09-26 06:45:00,
2013-09-26 03:00:00,53.2,52.0,29.91,NW,304,0.0,0.0,94,0.00,,,0.24,weatherlink.com 1.10,2013-09-26 07:00:00,
2013-09-26 03:15:00,53.0,51.0,29.91,NW,304,0.0,0.0,94,0.00,,,0.24,weatherlink.com 1.10,2013-09-26 07:15:00,
2013-09-26 03:30:00,53.0,51.0,29.91,NW,304,0.0,0.0,94,0.00,,,0.24,weatherlink.com 1.10,2013-09-26 07:30:00,
2013-09-26 03:45:00,53.0,51.0,29.91,NW,304,0.0,1.0,94,0.00,,,0.24,weatherlink.com 1.10,2013-09-26 07:45:00,
2013-09-26 04:00:00,52.8,51.0,29.91,NW,304,0.0,0.0,94,0.00,,,0.24,weatherlink.com 1.10,2013-09-26 08:00:00,
2013-09-26 04:15:00,52.7,51.0,29.91,NW,304,0.0,0.0,94,0.00,,,0.24,weatherlink.com 1.10,2013-09-26 08:15:00,
2013-09-26 04:30:00,52.6,51.0,29.91,NW,304,0.0,0.0,94,0.00,,,0.00,weatherlink.com 1.10,2013-09-26 08:30:00,
2013-09-26 04:45:00,52.6,51.0,29.91,NW,304,0.0,1.0,94,0.00,,,0.00,weatherlink.com 1.10,2013-09-26 08:45:00,
2013-09-26 05:00:00,52.7,51.0,29.92,NW,304,0.0,0.0,94,0.00,,,0.00,weatherlink.com 1.10,2013-09-26 09:00:00,
2013-09-26 05:15:00,52.8,51.0,29.91,NW,304,0.0,0.0,94,0.00,,,0.00,weatherlink.com 1.10,2013-09-26 09:15:00,
2013-09-26 05:30:00,52.8,51.0,29.92,NW,304,0.0,0.0,94,0.00,,,0.00,weatherlink.com 1.10,2013-09-26 09:30:00,
2013-09-26 05:45:00,52.9,51.0,29.92,NW,304,0.0,0.0,94,0.00,,,0.00,weatherlink.com 1.10,2013-09-26 09:45:00,
2013-09-26 06:00:00,53.0,51.0,29.92,NW,304,0.0,1.0,94,0.00,,,0.00,weatherlink.com 1.10,2013-09-26 10:00:00,
2013-09-26 06:16:00,52.8,51.0,29.92,NW,304,0.0,0.0,94,0.00,,,0.00,weatherlink.com 1.10,2013-09-26 10:16:00,
2013-09-26 06:30:00,52.8,51.0,29.93,NW,304,0.0,0.0,94,0.00,,,0.00,weatherlink.com 1.10,2013-09-26 10:30:00,
2013-09-26 06:45:00,52.9,51.0,29.93,NW,304,0.0,0.0,94,0.00,,,0.00,weatherlink.com 1.10,2013-09-26 10:45:00,
2013-09-26 07:00:00,53.0,52.0,29.93,NW,304,0.0,0.0,95,0.00,,,0.00,weatherlink.com 1.10,2013-09-26 11:00:00,
2013-09-26 07:15:00,53.1,52.0,29.94,NW,304,0.0,0.0,95,0.00,,,0.00,weatherlink.com 1.10,2013-09-26 11:15:00,
2013-09-26 07:30:00,53.1,52.0,29.95,NW,304,0.0,0.0,95,0.00,,,0.00,weatherlink.com 1.10,2013-09-26 11:30:00,
2013-09-26 07:45:00,53.3,52.0,29.95,NW,305,0.0,1.0,95,0.00,,,0.00,weatherlink.com 1.10,2013-09-26 11:45:00,
2013-09-26 08:01:00,53.4,52.0,29.96,NW,305,0.0,1.0,95,0.00,,,0.00,weatherlink.com 1.10,2013-09-26 12:01:00,
2013-09-26 08:16:00,53.7,52.0,29.96,NW,305,0.0,0.0,95,0.00,,,0.00,weatherlink.com 1.10,2013-09-26 12:16:00,
2013-09-26 08:31:00,54.2,53.0,29.96,NW,305,1.0,1.0,95,0.00,,,0.00,weatherlink.com 1.10,2013-09-26 12:31:00,
2013-09-26 08:46:00,54.5,53.0,29.96,NW,305,0.0,1.0,95,0.00,,,0.00,weatherlink.com 1.10,2013-09-26 12:46:00,
2013-09-26 09:01:00,55.1,54.0,29.97,NW,305,1.0,1.0,95,0.00,,,0.00,weatherlink.com 1.10,2013-09-26 13:01:00,
2013-09-26 09:16:00,55.2,54.0,29.98,NW,305,0.0,1.0,95,0.00,,,0.00,weatherlink.com 1.10,2013-09-26 13:16:00,
2013-09-26 09:31:00,55.9,54.0,29.98,NW,305,0.0,1.0,94,0.00,,,0.00,weatherlink.com 1.10,2013-09-26 13:31:00,
2013-09-26 09:46:00,56.8,55.0,29.98,NW,305,0.0,2.0,94,0.00,,,0.00,weatherlink.com 1.10,2013-09-26 13:46:00,
2013-09-26 10:02:00,57.8,56.0,29.99,NW,305,1.0,2.0,94,0.00,,,0.00,weatherlink.com 1.10,2013-09-26 14:02:00,
2013-09-26 10:16:00,59.1,57.0,29.99,NW,305,0.0,2.0,93,0.00,,,0.00,weatherlink.com 1.10,2013-09-26 14:16:00,
2013-09-26 10:31:00,60.8,56.0,29.99,NW,305,0.0,1.0,85,0.00,,,0.00,weatherlink.com 1.10,2013-09-26 14:31:00,
2013-09-26 10:46:00,61.9,56.0,29.99,NW,305,0.0,1.0,81,0.00,,,0.00,weatherlink.com 1.10,2013-09-26 14:46:00,
2013-09-26 11:01:00,62.4,54.0,29.99,NW,305,0.0,3.0,75,0.00,,,0.00,weatherlink.com 1.10,2013-09-26 15:01:00,
2013-09-26 11:16:00,63.2,54.0,29.99,West,267,0.0,3.0,71,0.00,,,0.00,weatherlink.com 1.10,2013-09-26 15:16:00,
2013-09-26 11:31:00,64.0,55.0,29.99,ENE,74,2.0,3.0,73,0.00,,,0.00,weatherlink.com 1.10,2013-09-26 15:31:00,
2013-09-26 11:46:00,65.8,56.0,29.98,West,279,0.0,3.0,70,0.00,,,0.00,weatherlink.com 1.10,2013-09-26 15:46:00,
2013-09-26 12:01:00,65.2,53.0,29.99,West,265,1.0,6.0,64,0.00,,,0.00,weatherlink.com 1.10,2013-09-26 16:01:00,
2013-09-26 12:16:00,65.0,52.0,29.99,West,275,0.0,6.0,63,0.00,,,0.00,weatherlink.com 1.10,2013-09-26 16:16:00,
2013-09-26 12:31:00,65.3,52.0,29.99,West,270,0.0,3.0,63,0.00,,,0.00,weatherlink.com 1.10,2013-09-26 16:31:00,
2013-09-26 12:46:00,66.6,54.0,29.98,ENE,60,3.0,4.0,65,0.00,,,0.00,weatherlink.com 1.10,2013-09-26 16:46:00,
2013-09-26 13:01:00,68.5,55.0,29.98,NW,325,1.0,5.0,63,0.00,,,0.00,weatherlink.com 1.10,2013-09-26 17:01:00,
2013-09-26 13:16:00,70.0,56.0,29.98,WSW,242,0.0,1.0,61,0.00,,,0.00,weatherlink.com 1.10,2013-09-26 17:16:00,
2013-09-26 13:31:00,69.9,53.0,29.98,NW,325,0.0,2.0,56,0.00,,,0.00,weatherlink.com 1.10,2013-09-26 17:31:00,
2013-09-26 13:46:00,69.5,55.0,29.97,NW,325,0.0,1.0,60,0.00,,,0.00,weatherlink.com 1.10,2013-09-26 17:46:00,
2013-09-26 14:01:00,69.7,54.0,29.97,East,97,1.0,3.0,58,0.00,,,0.00,weatherlink.com 1.10,2013-09-26 18:01:00,
2013-09-26 14:16:00,70.0,54.0,29.96,NNE,29,0.0,3.0,58,0.00,,,0.00,weatherlink.com 1.10,2013-09-26 18:16:00,
2013-09-26 14:32:00,70.7,53.0,29.96,North,5,0.0,2.0,54,0.00,,,0.00,weatherlink.com 1.10,2013-09-26 18:32:00,
2013-09-26 14:49:00,69.0,55.0,29.96,North,5,0.0,1.0,61,0.00,,,0.00,weatherlink.com 1.10,2013-09-26 18:49:00,
2013-09-26 15:02:00,69.0,54.0,29.96,SSW,210,0.0,1.0,60,0.00,,,0.00,weatherlink.com 1.10,2013-09-26 19:02:00,
2013-09-26 15:17:00,69.2,55.0,29.96,SW,232,0.0,2.0,61,0.00,,,0.00,weatherlink.com 1.10,2013-09-26 19:17:00,
2013-09-26 15:32:00,68.6,54.0,29.96,NW,312,1.0,2.0,61,0.00,,,0.00,weatherlink.com 1.10,2013-09-26 19:32:00,
2013-09-26 15:47:00,67.9,55.0,29.96,NW,312,0.0,1.0,64,0.00,,,0.00,weatherlink.com 1.10,2013-09-26 19:47:00,
2013-09-26 16:02:00,68.4,55.0,29.96,North,11,2.0,2.0,63,0.00,,,0.00,weatherlink.com 1.10,2013-09-26 20:02:00,
2013-09-26 16:17:00,69.5,55.0,29.96,ENE,61,3.0,3.0,61,0.00,,,0.00,weatherlink.com 1.10,2013-09-26 20:17:00,
2013-09-26 16:32:00,70.6,54.0,29.96,West,271,0.0,3.0,56,0.00,,,0.00,weatherlink.com 1.10,2013-09-26 20:32:00,
2013-09-26 16:47:00,70.5,54.0,29.96,West,271,1.0,2.0,56,0.00,,,0.00,weatherlink.com 1.10,2013-09-26 20:47:00,
2013-09-26 17:02:00,69.1,56.0,29.97,West,272,0.0,3.0,63,0.00,,,0.00,weatherlink.com 1.10,2013-09-26 21:02:00,
2013-09-26 17:17:00,69.8,57.0,29.97,NE,44,0.0,3.0,64,0.00,,,0.00,weatherlink.com 1.10,2013-09-26 21:17:00,
2013-09-26 17:32:00,69.4,57.0,29.97,NE,41,0.0,2.0,65,0.00,,,0.00,weatherlink.com 1.10,2013-09-26 21:32:00,
2013-09-26 17:47:00,69.3,57.0,29.97,NE,41,0.0,2.0,65,0.00,,,0.00,weatherlink.com 1.10,2013-09-26 21:47:00,
2013-09-26 18:02:00,67.6,56.0,29.97,NE,41,0.0,1.0,67,0.00,,,0.00,weatherlink.com 1.10,2013-09-26 22:02:00,
2013-09-26 18:17:00,64.6,56.0,29.98,NE,41,0.0,1.0,73,0.00,,,0.00,weatherlink.com 1.10,2013-09-26 22:17:00,
2013-09-26 18:34:00,62.5,56.0,29.98,NE,40,0.0,0.0,79,0.00,,,0.00,weatherlink.com 1.10,2013-09-26 22:34:00,
2013-09-26 18:47:00,60.8,55.0,29.99,NE,40,0.0,1.0,82,0.00,,,0.00,weatherlink.com 1.10,2013-09-26 22:47:00,
2013-09-26 19:02:00,59.9,55.0,29.99,NE,40,0.0,0.0,84,0.00,,,0.00,weatherlink.com 1.10,2013-09-26 23:02:00,
2013-09-26 19:17:00,59.0,54.0,30.00,NE,40,0.0,2.0,84,0.00,,,0.00,weatherlink.com 1.10,2013-09-26 23:17:00,
2013-09-26 19:32:00,58.2,54.0,30.00,NE,40,0.0,0.0,85,0.00,,,0.00,weatherlink.com 1.10,2013-09-26 23:32:00,
2013-09-26 19:47:00,57.3,53.0,30.01,NE,40,0.0,0.0,86,0.00,,,0.00,weatherlink.com 1.10,2013-09-26 23:47:00,
2013-09-26 20:02:00,56.4,53.0,30.01,NE,35,1.0,1.0,88,0.00,,,0.00,weatherlink.com 1.10,2013-09-27 00:02:00,
2013-09-26 20:17:00,55.8,53.0,30.02,NE,35,0.0,0.0,89,0.00,,,0.00,weatherlink.com 1.10,2013-09-27 00:17:00,
2013-09-26 20:32:00,55.3,52.0,30.02,NE,35,0.0,0.0,89,0.00,,,0.00,weatherlink.com 1.10,2013-09-27 00:32:00,
2013-09-26 21:02:00,54.2,51.0,30.03,NE,35,0.0,1.0,90,0.00,,,0.00,weatherlink.com 1.10,2013-09-27 01:02:00,
2013-09-26 21:17:00,53.7,51.0,30.04,NE,35,0.0,0.0,90,0.00,,,0.00,weatherlink.com 1.10,2013-09-27 01:17:00,
2013-09-26 21:32:00,53.1,51.0,30.04,NE,35,0.0,0.0,91,0.00,,,0.00,weatherlink.com 1.10,2013-09-27 01:32:00,
2013-09-26 21:47:00,52.6,50.0,30.05,NE,35,0.0,0.0,91,0.00,,,0.00,weatherlink.com 1.10,2013-09-27 01:47:00,
2013-09-26 22:02:00,52.2,50.0,30.05,NE,35,0.0,0.0,91,0.00,,,0.00,weatherlink.com 1.10,2013-09-27 02:02:00,
2013-09-26 22:17:00,51.8,49.0,30.06,NE,35,0.0,0.0,91,0.00,,,0.00,weatherlink.com 1.10,2013-09-27 02:17:00,
2013-09-26 22:32:00,51.3,49.0,30.05,NE,35,0.0,0.0,91,0.00,,,0.00,weatherlink.com 1.10,2013-09-27 02:32:00,
2013-09-26 22:47:00,50.9,49.0,30.06,NE,35,0.0,0.0,92,0.00,,,0.00,weatherlink.com 1.10,2013-09-27 02:47:00,
2013-09-26 23:02:00,50.5,48.0,30.06,NE,35,0.0,0.0,91,0.00,,,0.00,weatherlink.com 1.10,2013-09-27 03:02:00,
2013-09-26 23:17:00,50.2,48.0,30.06,NE,35,0.0,0.0,92,0.00,,,0.00,weatherlink.com 1.10,2013-09-27 03:17:00,
2013-09-26 23:32:00,50.1,48.0,30.06,NE,35,0.0,0.0,92,0.00,,,0.00,weatherlink.com 1.10,2013-09-27 03:32:00,
2013-09-26 23:47:00,50.0,48.0,30.07,NE,35,0.0,0.0,93,0.00,,,0.00,weatherlink.com 1.10,2013-09-27 03:47:00,